createdAt,value
2018-01-21T00:00:12.286Z,52.92
2018-01-21T00:00:36.054Z,53.53
2018-01-21T00:01:00.205Z,50.53
2018-01-21T00:01:23.956Z,51.35
2018-01-21T00:01:47.989Z,52.35
2018-01-21T00:02:12.019Z,53.05
2018-01-21T00:02:35.768Z,51.88
2018-01-21T00:02:59.501Z,54.88
2018-01-21T00:03:23.257Z,56.45
2018-01-21T00:03:47.078Z,57.00
2018-01-21T00:04:10.819Z,56.50
2018-01-21T00:04:34.875Z,53.97
2018-01-21T00:04:58.615Z,51.95
2018-01-21T00:05:22.068Z,52.60
2018-01-21T00:05:45.819Z,49.85
2018-01-21T00:06:09.555Z,50.00
2018-01-21T00:06:33.008Z,51.17
2018-01-21T00:06:56.739Z,52.45
2018-01-21T00:07:20.485Z,52.95
2018-01-21T00:07:44.515Z,51.40
2018-01-21T00:08:08.519Z,50.33
2018-01-21T00:08:32.325Z,50.67
2018-01-21T00:08:55.800Z,52.22
2018-01-21T00:09:19.555Z,51.88
2018-01-21T00:09:43.296Z,53.97
2018-01-21T00:10:06.967Z,54.17
2018-01-21T00:10:30.701Z,53.45
2018-01-21T00:10:54.479Z,52.45
2018-01-21T00:11:18.259Z,54.08
2018-01-21T00:11:42.281Z,52.65
2018-01-21T00:12:06.290Z,50.40
2018-01-21T00:12:30.051Z,48.25
2018-01-21T00:12:53.507Z,48.67
2018-01-21T00:13:17.253Z,48.92
2018-01-21T00:13:40.984Z,49.05
2018-01-21T00:14:04.504Z,49.38
2018-01-21T00:14:28.303Z,47.62
2018-01-21T00:14:52.034Z,49.63
2018-01-21T00:15:16.049Z,49.33
2018-01-21T00:15:39.804Z,49.10
2018-01-21T00:16:03.559Z,47.80
2018-01-21T00:16:27.291Z,47.88
2018-01-21T00:16:50.863Z,49.15
2018-01-21T00:17:14.882Z,49.40
2018-01-21T00:17:38.920Z,47.30
2018-01-21T00:18:02.672Z,48.85
2018-01-21T00:18:26.410Z,49.22
2018-01-21T00:18:50.159Z,46.97
2018-01-21T00:19:13.939Z,45.90
2018-01-21T00:19:37.675Z,49.88
2018-01-21T00:20:01.698Z,51.05
2018-01-21T00:20:25.733Z,50.85
2018-01-21T00:20:49.567Z,50.67
2018-01-21T00:21:13.596Z,49.00
2018-01-21T00:21:37.607Z,48.00
2018-01-21T00:22:01.619Z,50.00
2018-01-21T00:22:36.339Z,51.50
2018-01-21T00:23:00.102Z,50.67
2018-01-21T00:23:23.841Z,51.28
2018-01-21T00:23:47.611Z,50.35
2018-01-21T00:24:11.354Z,49.83
2018-01-21T00:24:35.414Z,51.00
2018-01-21T00:24:59.168Z,51.97
2018-01-21T00:25:22.611Z,48.78
2018-01-21T00:25:46.340Z,47.80
2018-01-21T00:26:10.558Z,47.92
2018-01-21T00:26:35.063Z,47.20
2018-01-21T00:26:58.577Z,45.57
2018-01-21T00:27:22.323Z,46.83
2018-01-21T00:27:46.075Z,48.40
2018-01-21T00:28:10.091Z,48.40
2018-01-21T00:28:34.096Z,49.83
2018-01-21T00:28:57.844Z,48.60
2018-01-21T00:29:21.585Z,48.72
2018-01-21T00:29:45.342Z,49.42
2018-01-21T00:30:09.083Z,49.55
2018-01-21T00:30:32.852Z,50.33
2018-01-21T00:30:56.899Z,50.38
2018-01-21T00:31:20.969Z,49.60
2018-01-21T00:31:44.733Z,48.65
2018-01-21T00:32:08.783Z,49.78
2018-01-21T00:32:32.807Z,49.30
2018-01-21T00:32:56.587Z,51.10
2018-01-21T00:33:20.043Z,50.28
2018-01-21T00:33:43.776Z,48.85
2018-01-21T00:34:07.504Z,47.83
2018-01-21T00:34:30.997Z,50.40
2018-01-21T00:34:54.751Z,49.88
2018-01-21T00:35:18.479Z,50.47
2018-01-21T00:35:42.502Z,50.08
2018-01-21T00:36:06.512Z,48.70
2018-01-21T00:36:30.317Z,47.13
2018-01-21T00:36:53.845Z,46.80
2018-01-21T00:37:17.587Z,48.40
2018-01-21T00:37:41.325Z,48.40
2018-01-21T00:38:05.336Z,48.45
2018-01-21T00:38:29.091Z,47.33
2018-01-21T00:38:52.850Z,48.20
2018-01-21T00:39:16.579Z,47.20
2018-01-21T00:39:40.318Z,47.90
2018-01-21T00:40:04.112Z,51.70
2018-01-21T00:40:28.119Z,53.60
2018-01-21T00:40:52.121Z,52.03
2018-01-21T00:41:15.843Z,49.70
2018-01-21T00:41:39.560Z,49.90
2018-01-21T00:42:03.312Z,52.40
2018-01-21T00:42:27.062Z,55.92
2018-01-21T00:42:50.826Z,52.85
2018-01-21T00:43:14.844Z,51.00
2018-01-21T00:43:38.858Z,49.42
2018-01-21T00:44:02.318Z,48.77
2018-01-21T00:44:26.075Z,47.67
2018-01-21T00:44:49.823Z,48.78
2018-01-21T00:45:13.628Z,51.40
2018-01-21T00:45:36.739Z,50.33
2018-01-21T00:46:00.484Z,51.30
2018-01-21T00:46:24.215Z,52.38
2018-01-21T00:46:47.951Z,53.85
2018-01-21T00:47:11.681Z,48.65
2018-01-21T00:47:35.423Z,47.83
2018-01-21T00:47:58.876Z,48.95
2018-01-21T00:48:22.611Z,53.33
2018-01-21T00:48:46.016Z,51.72
2018-01-21T00:49:09.818Z,50.50
2018-01-21T00:49:33.555Z,48.40
2018-01-21T00:49:57.297Z,47.25
2018-01-21T00:50:21.413Z,47.22
2018-01-21T00:50:45.156Z,46.55
2018-01-21T00:51:08.597Z,47.95
2018-01-21T00:51:32.329Z,46.78
2018-01-21T00:51:56.083Z,46.15
2018-01-21T00:52:19.533Z,46.00
2018-01-21T00:52:43.268Z,46.20
2018-01-21T00:53:07.023Z,46.58
2018-01-21T00:53:30.464Z,47.78
2018-01-21T00:53:54.203Z,49.50
2018-01-21T00:54:17.947Z,50.92
2018-01-21T00:54:41.998Z,49.25
2018-01-21T00:55:06.023Z,49.20
2018-01-21T00:55:29.794Z,49.25
2018-01-21T00:55:53.269Z,47.83
2018-01-21T00:56:17.045Z,47.10
2018-01-21T00:56:40.827Z,47.80
2018-01-21T00:57:04.846Z,47.70
2018-01-21T00:57:28.886Z,48.05
2018-01-21T00:57:52.639Z,49.30
2018-01-21T00:58:16.213Z,50.05
2018-01-21T00:58:39.947Z,51.78
2018-01-21T00:59:03.667Z,46.95
2018-01-21T00:59:27.752Z,47.80
2018-01-21T00:59:51.496Z,48.65
2018-01-21T01:00:14.941Z,48.10
2018-01-21T01:00:38.695Z,48.30
2018-01-21T01:01:02.439Z,46.63
2018-01-21T01:01:26.450Z,48.90
2018-01-21T01:01:50.461Z,46.50
2018-01-21T01:02:14.480Z,46.30
2018-01-21T01:02:38.219Z,45.55
2018-01-21T01:03:01.954Z,46.65
2018-01-21T01:03:25.699Z,46.97
2018-01-21T01:03:49.439Z,49.13
2018-01-21T01:04:13.212Z,52.38
2018-01-21T01:04:37.246Z,50.70
2018-01-21T01:05:01.306Z,50.95
2018-01-21T01:05:25.047Z,49.28
2018-01-21T01:05:48.512Z,49.50
2018-01-21T01:06:12.276Z,50.17
2018-01-21T01:06:36.012Z,51.63
2018-01-21T01:07:00.044Z,53.10
2018-01-21T01:07:24.080Z,52.67
2018-01-21T01:07:47.831Z,47.22
2018-01-21T01:08:11.276Z,45.95
2018-01-21T01:08:35.005Z,48.80
2018-01-21T01:08:58.760Z,51.35
2018-01-21T01:09:22.204Z,53.58
2018-01-21T01:09:45.924Z,52.80
2018-01-21T01:10:09.672Z,52.38
2018-01-21T01:10:33.736Z,52.65
2018-01-21T01:10:57.781Z,52.75
2018-01-21T01:11:21.524Z,52.25
2018-01-21T01:11:44.606Z,49.33
2018-01-21T01:12:08.629Z,50.28
2018-01-21T01:12:32.639Z,49.05
2018-01-21T01:12:56.399Z,51.67
2018-01-21T01:13:19.872Z,51.37
2018-01-21T01:13:43.622Z,51.33
2018-01-21T01:14:07.351Z,49.20
2018-01-21T01:14:31.375Z,49.47
2018-01-21T01:14:55.434Z,47.80
2018-01-21T01:15:19.167Z,48.37
2018-01-21T01:15:42.892Z,49.60
2018-01-21T01:16:06.642Z,52.35
2018-01-21T01:16:30.395Z,54.30
2018-01-21T01:16:54.140Z,54.28
2018-01-21T01:17:18.180Z,50.65
2018-01-21T01:17:42.239Z,50.03
2018-01-21T01:18:06.157Z,48.50
2018-01-21T01:18:30.200Z,46.45
2018-01-21T01:18:54.014Z,44.70
2018-01-21T01:19:18.045Z,46.80
2018-01-21T01:19:42.058Z,47.80
2018-01-21T01:20:05.844Z,46.47
2018-01-21T01:20:29.287Z,44.95
2018-01-21T01:20:53.117Z,45.35
2018-01-21T01:21:16.896Z,45.90
2018-01-21T01:21:40.931Z,43.35
2018-01-21T01:22:04.005Z,44.58
2018-01-21T01:22:27.735Z,45.20
2018-01-21T01:22:51.779Z,47.38
2018-01-21T01:23:15.229Z,47.30
2018-01-21T01:23:38.956Z,45.03
2018-01-21T01:24:02.699Z,42.72
2018-01-21T01:24:26.435Z,40.35
2018-01-21T01:24:49.876Z,38.90
2018-01-21T01:25:13.624Z,40.30
2018-01-21T01:25:37.387Z,42.28
2018-01-21T01:26:00.838Z,45.60
2018-01-21T01:26:24.600Z,45.83
2018-01-21T01:26:48.333Z,44.45
2018-01-21T01:27:12.363Z,42.97
2018-01-21T01:27:36.395Z,43.35
2018-01-21T01:27:59.877Z,41.20
2018-01-21T01:28:23.621Z,41.08
2018-01-21T01:28:47.359Z,43.63
2018-01-21T01:29:11.103Z,45.12
2018-01-21T01:29:34.556Z,44.97
2018-01-21T01:29:58.315Z,41.50
2018-01-21T01:30:22.062Z,42.62
2018-01-21T01:30:46.071Z,45.75
2018-01-21T01:31:10.088Z,45.45
2018-01-21T01:31:33.583Z,42.50
2018-01-21T01:31:57.311Z,40.75
2018-01-21T01:32:26.586Z,39.00
2018-01-21T01:32:50.209Z,40.40
2018-01-21T01:33:13.948Z,41.50
2018-01-21T01:33:37.430Z,43.13
2018-01-21T01:34:01.168Z,41.78
2018-01-21T01:34:24.959Z,40.22
2018-01-21T01:34:48.708Z,41.70
2018-01-21T01:35:12.755Z,41.22
2018-01-21T01:35:36.787Z,40.72
2018-01-21T01:36:00.568Z,38.72
2018-01-21T01:36:24.026Z,41.28
2018-01-21T01:36:47.810Z,40.58
2018-01-21T01:37:11.580Z,38.65
2018-01-21T01:37:35.440Z,39.30
2018-01-21T01:37:58.916Z,41.22
2018-01-21T01:38:22.671Z,44.03
2018-01-21T01:38:46.432Z,43.38
2018-01-21T01:39:10.465Z,43.08
2018-01-21T01:39:34.487Z,41.10
2018-01-21T01:39:57.865Z,39.92
2018-01-21T01:40:21.628Z,41.03
2018-01-21T01:40:45.382Z,40.25
2018-01-21T01:41:09.139Z,40.45
2018-01-21T01:41:33.241Z,39.38
2018-01-21T01:41:57.300Z,38.13
2018-01-21T01:42:21.064Z,40.55
2018-01-21T01:42:44.502Z,41.25
2018-01-21T01:43:08.235Z,38.70
2018-01-21T01:43:31.983Z,37.35
2018-01-21T01:43:55.459Z,36.38
2018-01-21T01:44:19.196Z,35.80
2018-01-21T01:44:42.965Z,37.22
2018-01-21T01:45:06.994Z,37.83
2018-01-21T01:45:31.017Z,37.58
2018-01-21T01:45:54.472Z,39.43
2018-01-21T01:46:18.237Z,39.83
2018-01-21T01:46:41.963Z,39.78
2018-01-21T01:47:05.776Z,38.58
2018-01-21T01:47:29.847Z,36.83
2018-01-21T01:47:53.872Z,40.10
2018-01-21T01:48:17.621Z,43.28
2018-01-21T01:48:40.667Z,44.67
2018-01-21T01:49:04.111Z,43.30
2018-01-21T01:49:27.865Z,41.58
2018-01-21T01:49:51.629Z,40.60
2018-01-21T01:50:15.651Z,38.88
2018-01-21T01:50:39.707Z,39.65
2018-01-21T01:51:03.454Z,38.50
2018-01-21T01:51:26.908Z,40.12
2018-01-21T01:51:50.887Z,39.90
2018-01-21T01:52:14.723Z,40.97
2018-01-21T01:52:38.673Z,39.60
2018-01-21T01:53:02.423Z,39.20
2018-01-21T01:53:26.471Z,38.28
2018-01-21T01:53:50.223Z,38.90
2018-01-21T01:54:13.655Z,39.60
2018-01-21T01:54:37.407Z,40.67
2018-01-21T01:55:01.168Z,41.00
2018-01-21T01:55:24.627Z,40.15
2018-01-21T01:55:48.380Z,39.00
2018-01-21T01:56:12.137Z,39.42
2018-01-21T01:56:36.175Z,41.37
2018-01-21T01:57:00.213Z,41.33
2018-01-21T01:57:24.069Z,41.37
2018-01-21T01:57:48.096Z,39.25
2018-01-21T01:58:12.138Z,41.20
2018-01-21T01:58:35.900Z,41.60
2018-01-21T01:58:59.365Z,41.60
2018-01-21T01:59:23.103Z,39.90
2018-01-21T01:59:46.984Z,36.78
2018-01-21T02:00:10.733Z,36.08
2018-01-21T02:00:34.189Z,42.35
2018-01-21T02:00:57.931Z,43.65
2018-01-21T02:01:21.692Z,44.08
2018-01-21T02:01:45.190Z,43.05
2018-01-21T02:02:08.759Z,43.58
2018-01-21T02:02:32.810Z,42.88
2018-01-21T02:02:56.575Z,43.00
2018-01-21T02:03:20.012Z,42.10
2018-01-21T02:03:43.761Z,41.10
2018-01-21T02:04:07.514Z,40.65
2018-01-21T02:04:31.560Z,42.15
2018-01-21T02:04:55.594Z,41.97
2018-01-21T02:05:19.350Z,40.67
2018-01-21T02:05:42.799Z,41.47
2018-01-21T02:06:06.561Z,43.95
2018-01-21T02:06:30.346Z,46.63
2018-01-21T02:06:54.373Z,45.90
2018-01-21T02:07:18.268Z,44.10
2018-01-21T02:07:42.356Z,43.45
2018-01-21T02:08:05.910Z,42.40
2018-01-21T02:08:29.692Z,43.60
2018-01-21T02:08:53.431Z,44.28
2018-01-21T02:09:17.156Z,45.40
2018-01-21T02:09:41.184Z,43.83
2018-01-21T02:10:05.221Z,41.65
2018-01-21T02:10:28.966Z,39.58
2018-01-21T02:10:52.785Z,39.35
2018-01-21T02:11:16.267Z,43.08
2018-01-21T02:11:39.646Z,43.63
2018-01-21T02:12:03.416Z,41.45
2018-01-21T02:12:27.169Z,41.25
2018-01-21T02:12:50.946Z,41.60
2018-01-21T02:13:15.053Z,41.53
2018-01-21T02:13:38.808Z,41.08
2018-01-21T02:14:02.289Z,40.83
2018-01-21T02:14:26.067Z,42.15
2018-01-21T02:14:49.834Z,43.40
2018-01-21T02:15:13.855Z,41.92
2018-01-21T02:15:37.304Z,39.43
2018-01-21T02:16:01.058Z,39.42
2018-01-21T02:16:24.809Z,39.25
2018-01-21T02:16:48.566Z,35.60
2018-01-21T02:17:12.323Z,32.97
2018-01-21T02:17:36.068Z,32.05
2018-01-21T02:17:59.833Z,32.17
2018-01-21T02:18:23.578Z,33.58
2018-01-21T02:18:47.606Z,35.92
2018-01-21T02:19:10.387Z,38.37
2018-01-21T02:19:33.827Z,38.75
2018-01-21T02:19:57.226Z,36.78
2018-01-21T02:20:20.608Z,35.60
2018-01-21T02:20:44.127Z,33.53
2018-01-21T02:21:07.869Z,32.22
2018-01-21T02:21:31.610Z,31.15
2018-01-21T02:21:55.007Z,31.27
2018-01-21T02:22:18.801Z,31.27
2018-01-21T02:22:42.550Z,33.15
2018-01-21T02:23:06.314Z,33.95
2018-01-21T02:23:30.073Z,32.17
2018-01-21T02:23:53.520Z,29.90
2018-01-21T02:24:17.247Z,32.40
2018-01-21T02:24:40.988Z,33.40
2018-01-21T02:25:04.485Z,32.22
2018-01-21T02:25:28.211Z,31.58
2018-01-21T02:25:51.988Z,32.80
2018-01-21T02:26:16.003Z,31.20
2018-01-21T02:26:40.009Z,28.08
2018-01-21T02:27:03.751Z,27.92
2018-01-21T02:27:27.198Z,26.08
2018-01-21T02:27:50.942Z,26.67
2018-01-21T02:28:14.738Z,28.20
2018-01-21T02:28:38.195Z,29.63
2018-01-21T02:29:01.735Z,26.40
2018-01-21T02:29:25.741Z,26.87
2018-01-21T02:29:49.759Z,27.77
2018-01-21T02:30:13.215Z,27.87
2018-01-21T02:30:36.976Z,26.80
2018-01-21T02:31:00.794Z,26.60
2018-01-21T02:31:24.542Z,26.10
2018-01-21T02:31:48.568Z,24.27
2018-01-21T02:32:12.600Z,24.85
2018-01-21T02:32:36.362Z,25.83
2018-01-21T02:32:59.824Z,26.33
2018-01-21T02:33:23.583Z,25.23
2018-01-21T02:33:47.336Z,24.30
2018-01-21T02:34:11.400Z,25.75
2018-01-21T02:34:34.948Z,25.13
2018-01-21T02:34:58.693Z,27.05
2018-01-21T02:35:22.437Z,24.92
2018-01-21T02:35:46.204Z,24.87
2018-01-21T02:36:10.261Z,24.10
2018-01-21T02:36:33.732Z,24.50
2018-01-21T02:36:57.114Z,25.42
2018-01-21T02:37:21.129Z,25.85
2018-01-21T02:37:45.135Z,26.85
2018-01-21T02:38:08.602Z,28.47
2018-01-21T02:38:32.359Z,27.17
2018-01-21T02:38:56.100Z,26.58
2018-01-21T02:39:19.857Z,25.15
2018-01-21T02:39:43.892Z,22.85
2018-01-21T02:40:07.924Z,25.37
2018-01-21T02:40:31.704Z,25.50
2018-01-21T02:40:55.115Z,24.95
2018-01-21T02:41:18.843Z,26.00
2018-01-21T02:41:42.297Z,27.30
2018-01-21T02:42:06.031Z,28.65
2018-01-21T02:42:29.791Z,25.40
2018-01-21T02:42:53.581Z,23.45
2018-01-21T02:43:17.038Z,23.27
2018-01-21T02:43:40.803Z,25.23
2018-01-21T02:44:04.565Z,25.17
2018-01-21T02:44:28.577Z,25.70
2018-01-21T02:44:52.350Z,27.35
2018-01-21T02:45:16.103Z,29.67
2018-01-21T02:45:39.824Z,27.92
2018-01-21T02:46:03.581Z,24.30
2018-01-21T02:46:27.338Z,24.15
2018-01-21T02:46:51.377Z,24.10
2018-01-21T02:47:15.421Z,24.23
2018-01-21T02:47:39.186Z,25.92
2018-01-21T02:48:03.212Z,26.95
2018-01-21T02:48:27.252Z,27.58
2018-01-21T02:48:51.291Z,25.52
2018-01-21T02:49:14.676Z,25.00
2018-01-21T02:49:38.399Z,26.62
2018-01-21T02:50:02.131Z,26.65
2018-01-21T02:50:26.266Z,24.70
2018-01-21T02:50:50.015Z,28.67
2018-01-21T02:51:14.028Z,27.92
2018-01-21T02:51:38.078Z,25.05
2018-01-21T02:52:01.835Z,24.30
2018-01-21T02:52:25.282Z,26.37
2018-01-21T02:52:49.054Z,27.42
2018-01-21T02:53:12.811Z,27.60
2018-01-21T02:53:36.824Z,27.55
2018-01-21T02:54:00.886Z,25.23
2018-01-21T02:54:24.652Z,22.95
2018-01-21T02:54:48.095Z,24.25
2018-01-21T02:55:11.843Z,25.17
2018-01-21T02:55:35.606Z,25.48
2018-01-21T02:55:59.616Z,26.85
2018-01-21T02:56:23.633Z,25.83
2018-01-21T02:56:47.660Z,26.48
2018-01-21T02:57:11.438Z,25.33
2018-01-21T02:57:34.903Z,25.85
2018-01-21T02:57:58.646Z,25.20
2018-01-21T02:58:22.404Z,24.87
2018-01-21T02:58:46.490Z,22.60
2018-01-21T02:59:10.404Z,24.17
2018-01-21T02:59:34.420Z,26.17
2018-01-21T02:59:57.882Z,24.60
2018-01-21T03:00:21.664Z,21.48
2018-01-21T03:00:45.497Z,22.77
2018-01-21T03:01:09.233Z,22.65
2018-01-21T03:01:33.271Z,22.25
2018-01-21T03:01:56.728Z,24.90
2018-01-21T03:02:20.504Z,25.37
2018-01-21T03:02:44.243Z,25.52
2018-01-21T03:03:08.904Z,26.65
2018-01-21T03:03:32.656Z,25.50
2018-01-21T03:03:56.591Z,23.30
2018-01-21T03:04:20.347Z,23.05
2018-01-21T03:04:44.081Z,23.95
2018-01-21T03:05:07.835Z,22.58
2018-01-21T03:05:31.298Z,22.58
2018-01-21T03:05:55.036Z,22.13
2018-01-21T03:06:18.834Z,22.15
2018-01-21T03:06:42.859Z,22.50
2018-01-21T03:07:06.900Z,21.08
2018-01-21T03:07:30.667Z,20.45
2018-01-21T03:07:54.115Z,23.02
2018-01-21T03:08:17.864Z,25.23
2018-01-21T03:08:41.672Z,24.55
2018-01-21T03:09:05.017Z,22.40
2018-01-21T03:09:28.775Z,20.30
2018-01-21T03:09:52.563Z,20.75
2018-01-21T03:10:16.593Z,21.02
2018-01-21T03:10:40.101Z,22.70
2018-01-21T03:11:04.018Z,22.57
2018-01-21T03:11:27.764Z,22.50
2018-01-21T03:11:51.504Z,20.37
2018-01-21T03:12:15.259Z,21.20
2018-01-21T03:12:38.727Z,19.98
2018-01-21T03:13:02.461Z,21.12
2018-01-21T03:13:25.873Z,22.77
2018-01-21T03:13:49.609Z,25.15
2018-01-21T03:14:13.350Z,23.23
2018-01-21T03:14:37.237Z,20.70
2018-01-21T03:15:01.277Z,19.92
2018-01-21T03:15:25.048Z,19.45
2018-01-21T03:15:48.487Z,20.10
2018-01-21T03:16:12.260Z,21.23
2018-01-21T03:16:36.140Z,19.65
2018-01-21T03:16:59.922Z,17.98
2018-01-21T03:17:23.396Z,18.05
2018-01-21T03:17:47.163Z,17.87
2018-01-21T03:18:10.915Z,18.98
2018-01-21T03:18:34.983Z,18.83
2018-01-21T03:18:58.731Z,20.58
2018-01-21T03:19:22.193Z,19.35
2018-01-21T03:19:45.955Z,19.52
2018-01-21T03:20:09.725Z,19.87
2018-01-21T03:20:33.800Z,20.73
2018-01-21T03:20:57.548Z,21.17
2018-01-21T03:21:21.027Z,20.58
2018-01-21T03:21:44.772Z,18.10
2018-01-21T03:22:08.526Z,17.73
2018-01-21T03:22:32.481Z,17.70
2018-01-21T03:22:55.959Z,19.67
2018-01-21T03:23:19.738Z,19.85
2018-01-21T03:23:43.482Z,19.62
2018-01-21T03:24:07.562Z,17.62
2018-01-21T03:24:31.299Z,18.30
2018-01-21T03:24:54.791Z,17.95
2018-01-21T03:25:18.537Z,19.05
2018-01-21T03:25:42.306Z,17.50
2018-01-21T03:26:06.356Z,19.95
2018-01-21T03:26:30.281Z,20.35
2018-01-21T03:26:54.049Z,21.40
2018-01-21T03:27:17.487Z,19.35
2018-01-21T03:27:41.355Z,17.77
2018-01-21T03:28:05.142Z,18.02
2018-01-21T03:28:28.903Z,16.77
2018-01-21T03:28:52.362Z,18.70
2018-01-21T03:29:16.111Z,19.12
2018-01-21T03:29:39.867Z,18.60
2018-01-21T03:30:03.940Z,20.35
2018-01-21T03:30:27.430Z,19.10
2018-01-21T03:30:51.204Z,18.02
2018-01-21T03:31:14.955Z,15.82
2018-01-21T03:31:38.699Z,16.15
2018-01-21T03:32:02.732Z,15.25
2018-01-21T03:32:26.796Z,16.60
2018-01-21T03:32:50.555Z,18.23
2018-01-21T03:33:14.594Z,19.58
2018-01-21T03:33:38.667Z,19.73
2018-01-21T03:34:02.421Z,19.75
2018-01-21T03:34:25.878Z,19.00
2018-01-21T03:34:49.628Z,19.92
2018-01-21T03:35:13.410Z,18.70
2018-01-21T03:35:37.480Z,18.25
2018-01-21T03:36:01.251Z,18.50
2018-01-21T03:36:24.699Z,19.17
2018-01-21T03:36:48.459Z,17.92
2018-01-21T03:37:12.219Z,18.75
2018-01-21T03:37:36.276Z,19.00
2018-01-21T03:38:00.332Z,18.35
2018-01-21T03:38:24.093Z,16.27
2018-01-21T03:38:48.139Z,15.07
2018-01-21T03:39:12.171Z,15.30
2018-01-21T03:39:35.931Z,17.98
2018-01-21T03:39:59.399Z,19.37
2018-01-21T03:40:23.163Z,19.60
2018-01-21T03:40:46.919Z,20.00
2018-01-21T03:41:10.997Z,19.35
2018-01-21T03:41:34.749Z,17.67
2018-01-21T03:41:58.193Z,17.62
2018-01-21T03:42:21.933Z,17.77
2018-01-21T03:42:45.685Z,18.25
2018-01-21T03:43:09.787Z,19.15
2018-01-21T03:43:33.249Z,18.77
2018-01-21T03:43:56.996Z,18.42
2018-01-21T03:44:20.737Z,19.25
2018-01-21T03:44:44.492Z,19.83
2018-01-21T03:45:08.536Z,18.08
2018-01-21T03:45:32.363Z,17.17
2018-01-21T03:45:56.095Z,18.10
2018-01-21T03:46:19.851Z,20.75
2018-01-21T03:46:43.610Z,22.62
2018-01-21T03:47:07.445Z,24.52
2018-01-21T03:47:31.499Z,23.20
2018-01-21T03:47:55.240Z,20.98
2018-01-21T03:48:19.304Z,19.25
2018-01-21T03:48:43.335Z,19.50
2018-01-21T03:49:07.091Z,19.02
2018-01-21T03:49:30.559Z,21.00
2018-01-21T03:49:54.291Z,20.08
2018-01-21T03:50:18.034Z,19.95
2018-01-21T03:50:42.083Z,18.77
2018-01-21T03:51:06.123Z,21.40
2018-01-21T03:51:29.881Z,22.67
2018-01-21T03:51:53.326Z,23.95
2018-01-21T03:52:17.087Z,23.00
2018-01-21T03:52:40.874Z,23.42
2018-01-21T03:53:04.906Z,22.17
2018-01-21T03:53:28.355Z,23.97
2018-01-21T03:53:51.906Z,23.40
2018-01-21T03:54:15.461Z,21.48
2018-01-21T03:54:39.024Z,20.10
2018-01-21T03:55:02.763Z,20.30
2018-01-21T03:55:26.512Z,22.20
2018-01-21T03:55:50.009Z,22.20
2018-01-21T03:56:13.751Z,22.62
2018-01-21T03:56:37.508Z,22.10
2018-01-21T03:57:01.537Z,21.90
2018-01-21T03:57:25.578Z,23.70
2018-01-21T03:57:49.599Z,24.83
2018-01-21T03:58:13.344Z,23.23
2018-01-21T03:58:37.408Z,20.35
2018-01-21T03:59:00.852Z,20.40
2018-01-21T03:59:24.632Z,24.10
2018-01-21T03:59:48.389Z,22.10
2018-01-21T04:00:14.465Z,21.25
2018-01-21T04:00:38.233Z,20.27
2018-01-21T04:01:01.997Z,20.65
2018-01-21T04:01:25.762Z,20.77
2018-01-21T04:01:49.420Z,21.05
2018-01-21T04:02:13.164Z,23.17
2018-01-21T04:02:36.911Z,24.50
2018-01-21T04:03:00.948Z,23.40
2018-01-21T04:03:25.016Z,21.37
2018-01-21T04:03:48.778Z,25.00
2018-01-21T04:04:12.223Z,23.75
2018-01-21T04:04:35.980Z,23.80
2018-01-21T04:04:59.735Z,22.92
2018-01-21T04:05:23.172Z,22.90
2018-01-21T04:05:46.927Z,22.83
2018-01-21T04:06:10.703Z,23.95
2018-01-21T04:06:34.733Z,22.90
2018-01-21T04:06:58.172Z,22.47
2018-01-21T04:07:21.915Z,22.83
2018-01-21T04:07:45.691Z,22.77
2018-01-21T04:08:09.443Z,22.15
2018-01-21T04:08:32.881Z,23.70
2018-01-21T04:08:56.613Z,25.88
2018-01-21T04:09:20.367Z,24.10
2018-01-21T04:09:43.826Z,24.83
2018-01-21T04:10:07.560Z,26.10
2018-01-21T04:10:31.313Z,27.37
2018-01-21T04:10:55.339Z,25.15
2018-01-21T04:11:19.391Z,22.55
2018-01-21T04:11:43.132Z,23.12
2018-01-21T04:12:06.599Z,23.38
2018-01-21T04:12:30.443Z,24.77
2018-01-21T04:12:54.196Z,26.50
2018-01-21T04:13:18.208Z,27.33
2018-01-21T04:13:41.958Z,26.65
2018-01-21T04:14:05.808Z,27.10
2018-01-21T04:14:29.414Z,25.23
2018-01-21T04:14:53.147Z,25.75
2018-01-21T04:15:16.907Z,25.83
2018-01-21T04:15:40.948Z,25.65
2018-01-21T04:16:04.970Z,26.12
2018-01-21T04:16:28.752Z,26.42
2018-01-21T04:16:52.221Z,24.25
2018-01-21T04:17:15.956Z,25.42
2018-01-21T04:17:39.724Z,24.73
2018-01-21T04:18:03.756Z,25.45
2018-01-21T04:18:27.777Z,28.52
2018-01-21T04:18:51.518Z,30.50
2018-01-21T04:19:14.972Z,32.10
2018-01-21T04:19:38.704Z,31.12
2018-01-21T04:20:02.447Z,28.33
2018-01-21T04:20:26.524Z,27.85
2018-01-21T04:20:50.530Z,29.02
2018-01-21T04:21:14.543Z,30.15
2018-01-21T04:21:38.333Z,33.83
2018-01-21T04:22:02.360Z,33.67
2018-01-21T04:22:26.460Z,31.92
2018-01-21T04:22:50.012Z,30.20
2018-01-21T04:23:13.556Z,28.85
2018-01-21T04:23:37.283Z,32.15
2018-01-21T04:24:01.314Z,29.75
2018-01-21T04:24:25.054Z,26.48
2018-01-21T04:24:48.526Z,28.17
2018-01-21T04:25:12.259Z,29.48
2018-01-21T04:25:36.011Z,31.15
2018-01-21T04:26:00.043Z,32.28
2018-01-21T04:26:24.081Z,31.67
2018-01-21T04:26:47.852Z,30.88
2018-01-21T04:27:11.291Z,30.40
2018-01-21T04:27:35.025Z,27.45
2018-01-21T04:27:58.775Z,29.42
2018-01-21T04:28:22.224Z,29.95
2018-01-21T04:28:45.953Z,29.95
2018-01-21T04:29:09.731Z,31.42
2018-01-21T04:29:33.759Z,32.17
2018-01-21T04:29:57.207Z,34.23
2018-01-21T04:30:20.939Z,31.87
2018-01-21T04:30:44.717Z,29.87
2018-01-21T04:31:08.528Z,30.70
2018-01-21T04:31:32.540Z,32.08
2018-01-21T04:31:56.580Z,37.80
2018-01-21T04:32:20.379Z,39.63
2018-01-21T04:32:44.338Z,37.55
2018-01-21T04:33:08.359Z,34.55
2018-01-21T04:33:32.388Z,33.08
2018-01-21T04:33:56.436Z,34.53
2018-01-21T04:34:20.200Z,36.83
2018-01-21T04:34:43.655Z,36.60
2018-01-21T04:35:07.383Z,34.65
2018-01-21T04:35:31.123Z,33.75
2018-01-21T04:35:55.157Z,34.95
2018-01-21T04:36:19.187Z,33.40
2018-01-21T04:36:43.032Z,33.45
2018-01-21T04:37:07.087Z,34.83
2018-01-21T04:37:30.824Z,34.03
2018-01-21T04:37:54.272Z,38.95
2018-01-21T04:38:18.020Z,41.20
2018-01-21T04:38:41.809Z,43.75
2018-01-21T04:39:05.156Z,37.55
2018-01-21T04:39:28.916Z,35.97
2018-01-21T04:39:52.659Z,37.15
2018-01-21T04:40:16.099Z,37.55
2018-01-21T04:40:39.843Z,37.92
2018-01-21T04:41:03.611Z,36.70
2018-01-21T04:41:27.650Z,36.33
2018-01-21T04:41:51.392Z,38.63
2018-01-21T04:42:14.855Z,38.65
2018-01-21T04:42:38.588Z,40.20
2018-01-21T04:43:02.363Z,41.50
2018-01-21T04:43:26.398Z,41.58
2018-01-21T04:43:50.468Z,41.35
2018-01-21T04:44:14.215Z,41.42
2018-01-21T04:44:37.659Z,44.20
2018-01-21T04:45:01.395Z,40.78
2018-01-21T04:45:24.805Z,38.70
2018-01-21T04:45:48.735Z,39.10
2018-01-21T04:46:12.475Z,39.92
2018-01-21T04:46:36.207Z,40.55
2018-01-21T04:46:59.958Z,40.63
2018-01-21T04:47:24.030Z,39.08
2018-01-21T04:47:48.076Z,40.90
2018-01-21T04:48:11.892Z,42.58
2018-01-21T04:48:35.967Z,41.72
2018-01-21T04:48:59.427Z,41.23
2018-01-21T04:49:23.172Z,40.25
2018-01-21T04:49:46.920Z,40.17
2018-01-21T04:50:10.692Z,43.67
2018-01-21T04:50:34.742Z,43.72
2018-01-21T04:50:58.765Z,47.92
2018-01-21T04:51:22.520Z,49.55
2018-01-21T04:51:45.967Z,45.80
2018-01-21T04:52:09.696Z,44.70
2018-01-21T04:52:33.467Z,44.60
2018-01-21T04:52:56.948Z,46.33
2018-01-21T04:53:20.695Z,43.45
2018-01-21T04:53:44.453Z,46.92
2018-01-21T04:54:08.471Z,46.40
2018-01-21T04:54:32.242Z,45.28
2018-01-21T04:54:55.698Z,45.50
2018-01-21T04:55:19.439Z,45.03
2018-01-21T04:55:43.198Z,45.22
2018-01-21T04:56:07.207Z,45.20
2018-01-21T04:56:30.377Z,43.50
2018-01-21T04:56:54.135Z,45.10
2018-01-21T04:57:18.183Z,46.25
2018-01-21T04:57:41.955Z,44.78
2018-01-21T04:58:05.442Z,41.08
2018-01-21T04:58:29.202Z,40.70
2018-01-21T04:58:52.953Z,43.55
2018-01-21T04:59:16.984Z,46.70
2018-01-21T04:59:40.754Z,43.75
2018-01-21T05:00:03.514Z,43.85
2018-01-21T05:00:27.314Z,41.88
2018-01-21T05:00:51.051Z,39.55
2018-01-21T05:01:14.864Z,40.05
2018-01-21T05:01:38.676Z,43.78
2018-01-21T05:02:02.781Z,42.83
2018-01-21T05:02:26.557Z,39.35
2018-01-21T05:02:50.040Z,37.58
2018-01-21T05:03:13.797Z,35.17
2018-01-21T05:03:37.559Z,36.95
2018-01-21T05:04:01.607Z,41.80
2018-01-21T05:04:25.359Z,46.08
2018-01-21T05:04:49.422Z,43.30
2018-01-21T05:05:13.468Z,42.62
2018-01-21T05:05:37.232Z,39.13
2018-01-21T05:06:00.706Z,39.47
2018-01-21T05:06:24.455Z,40.63